createdAt,value
2019-03-18T00:02:24.198Z,6.90
2019-03-18T00:04:54.773Z,5.60
2019-03-18T00:07:25.270Z,9.83
2019-03-18T00:09:55.727Z,7.87
2019-03-18T00:12:26.218Z,9.67
2019-03-18T00:15:01.642Z,7.53
2019-03-18T00:17:28.934Z,8.93
2019-03-18T00:19:59.445Z,13.70
2019-03-18T00:22:29.922Z,11.47
2019-03-18T00:25:00.547Z,12.10
2019-03-18T00:27:30.994Z,11.37
2019-03-18T00:30:01.476Z,7.83
2019-03-18T00:32:31.957Z,9.47
2019-03-18T00:35:02.755Z,10.23
2019-03-18T00:37:33.216Z,11.40
2019-03-18T00:40:03.709Z,14.53
2019-03-18T00:42:34.186Z,7.43
2019-03-18T00:45:14.087Z,8.03
2019-03-18T00:47:36.875Z,13.40
2019-03-18T00:50:07.759Z,9.20
2019-03-18T00:52:38.218Z,9.27
2019-03-18T00:55:10.343Z,12.27
2019-03-18T00:57:40.872Z,11.33
2019-03-18T01:00:11.812Z,14.40
2019-03-18T01:02:42.306Z,10.17
2019-03-18T01:05:12.865Z,10.03
2019-03-18T01:07:43.348Z,9.30
2019-03-18T01:10:14.213Z,5.80
2019-03-18T01:12:44.808Z,8.63
2019-03-18T01:15:27.371Z,9.17
2019-03-18T01:17:48.101Z,10.10
2019-03-18T01:20:19.510Z,7.97
2019-03-18T01:22:50.408Z,7.70
2019-03-18T01:25:20.993Z,11.30
2019-03-18T01:27:51.907Z,11.43
2019-03-18T01:30:23.450Z,10.68
2019-03-18T01:32:54.235Z,12.40
2019-03-18T01:35:24.710Z,10.07
2019-03-18T01:37:55.227Z,13.37
2019-03-18T01:40:25.726Z,7.43
2019-03-18T01:42:56.287Z,11.33
2019-03-18T01:45:39.816Z,9.80
2019-03-18T01:47:58.985Z,12.20
2019-03-18T01:50:29.456Z,7.62
2019-03-18T01:52:59.925Z,11.27
2019-03-18T01:55:31.258Z,8.60
2019-03-18T01:58:01.746Z,7.47
2019-03-18T02:00:32.254Z,7.23
2019-03-18T02:03:03.708Z,11.80
2019-03-18T02:05:37.053Z,7.97
2019-03-18T02:08:11.240Z,11.43
2019-03-18T02:10:44.725Z,12.37
2019-03-18T02:13:19.692Z,11.37
2019-03-18T02:15:58.212Z,9.90
2019-03-18T02:18:48.048Z,14.10
2019-03-18T02:21:28.829Z,11.63
2019-03-18T02:24:03.758Z,11.53
2019-03-18T02:26:37.906Z,12.77
2019-03-18T02:29:14.349Z,13.40
2019-03-18T02:31:47.923Z,13.33
2019-03-18T02:34:19.672Z,13.27
2019-03-18T02:36:54.563Z,9.80
2019-03-18T02:39:27.203Z,11.13
2019-03-18T02:42:00.890Z,11.40
2019-03-18T02:44:31.381Z,11.37
2019-03-18T02:47:01.983Z,12.97
2019-03-18T02:49:32.453Z,10.27
2019-03-18T02:52:03.055Z,7.87
2019-03-18T02:54:33.543Z,14.07
2019-03-18T02:57:04.319Z,13.23
2019-03-18T02:59:35.691Z,9.87
2019-03-18T03:02:06.173Z,10.10
2019-03-18T03:04:37.052Z,18.97
2019-03-18T03:07:10.826Z,13.20
2019-03-18T03:09:41.225Z,9.43
2019-03-18T03:12:11.731Z,13.83
2019-03-18T03:14:42.559Z,12.93
2019-03-18T03:17:13.331Z,8.20
2019-03-18T03:19:44.732Z,10.70
2019-03-18T03:22:15.303Z,13.47
2019-03-18T03:24:45.820Z,9.43
2019-03-18T03:27:16.406Z,9.67
2019-03-18T03:29:47.227Z,16.50
2019-03-18T03:32:17.736Z,12.40
2019-03-18T03:34:48.721Z,13.30
2019-03-18T03:37:19.652Z,11.70
2019-03-18T03:39:50.215Z,8.70
2019-03-18T03:42:21.600Z,9.13
2019-03-18T03:44:52.129Z,8.30
2019-03-18T03:47:23.603Z,13.80
2019-03-18T03:49:56.286Z,15.27
2019-03-18T03:52:27.203Z,8.37
2019-03-18T03:54:57.967Z,15.00
2019-03-18T03:57:28.620Z,8.77
2019-03-18T03:59:58.985Z,14.53
2019-03-18T04:02:29.532Z,10.20
2019-03-18T04:05:02.662Z,12.63
2019-03-18T04:07:33.155Z,10.50
2019-03-18T04:10:03.669Z,12.13
2019-03-18T04:12:34.599Z,6.90
2019-03-18T04:15:06.020Z,13.17
2019-03-18T04:17:36.426Z,15.95
2019-03-18T04:20:07.687Z,6.70
2019-03-18T04:22:38.210Z,12.40
2019-03-18T04:25:09.107Z,12.97
2019-03-18T04:27:39.613Z,15.43
2019-03-18T04:30:10.223Z,11.63
2019-03-18T04:32:46.113Z,12.90
2019-03-18T04:35:16.611Z,14.97
2019-03-18T04:37:47.087Z,13.40
2019-03-18T04:40:17.931Z,10.83
2019-03-18T04:42:48.422Z,14.07
2019-03-18T04:45:18.910Z,13.33
2019-03-18T04:47:49.334Z,10.43
2019-03-18T04:50:19.787Z,15.80
2019-03-18T04:52:50.307Z,11.07
2019-03-18T04:55:20.777Z,9.90
2019-03-18T04:57:51.767Z,11.33
2019-03-18T05:00:22.266Z,11.30
2019-03-18T05:02:52.775Z,13.43
2019-03-18T05:05:24.456Z,12.70
2019-03-18T05:07:54.942Z,12.37
2019-03-18T05:10:25.527Z,14.50
2019-03-18T05:12:56.032Z,10.93
2019-03-18T05:15:26.559Z,13.17
2019-03-18T05:17:57.039Z,12.93
2019-03-18T05:20:27.522Z,10.33
2019-03-18T05:22:58.021Z,12.23
2019-03-18T05:25:28.510Z,8.10
2019-03-18T05:27:59.045Z,13.30
2019-03-18T05:30:29.988Z,9.30
2019-03-18T05:33:00.506Z,7.93
2019-03-18T05:35:30.952Z,12.77
2019-03-18T05:38:01.917Z,9.70
2019-03-18T05:40:36.067Z,13.97
2019-03-18T05:43:06.591Z,13.60
2019-03-18T05:45:37.174Z,15.33
2019-03-18T05:48:07.659Z,18.30
2019-03-18T05:50:38.163Z,14.03
2019-03-18T05:53:08.932Z,9.57
2019-03-18T05:55:39.434Z,15.03
2019-03-18T05:58:09.932Z,17.53
2019-03-18T06:00:40.395Z,12.90
2019-03-18T06:03:10.931Z,12.03
2019-03-18T06:05:41.404Z,14.47
2019-03-18T06:08:11.922Z,14.47
2019-03-18T06:10:42.376Z,12.37
2019-03-18T06:13:12.847Z,11.30
2019-03-18T06:15:43.332Z,14.27
2019-03-18T06:18:13.822Z,11.30
2019-03-18T06:20:44.328Z,11.30
2019-03-18T06:23:14.814Z,14.27
2019-03-18T06:25:45.307Z,12.27
2019-03-18T06:28:15.775Z,6.57
2019-03-18T06:30:46.242Z,10.50
2019-03-18T06:33:16.767Z,6.47
2019-03-18T06:35:47.243Z,3.60
2019-03-18T06:38:17.723Z,6.13
2019-03-18T06:40:48.183Z,5.80
2019-03-18T06:43:18.677Z,4.97
2019-03-18T06:45:49.148Z,5.17
2019-03-18T06:48:20.050Z,3.30
2019-03-18T06:50:50.979Z,3.90
2019-03-18T06:53:21.450Z,5.23
2019-03-18T06:55:51.939Z,4.43
2019-03-18T06:58:22.415Z,3.43
2019-03-18T07:00:52.911Z,5.43
2019-03-18T07:03:23.486Z,3.30
2019-03-18T07:05:54.145Z,3.40
2019-03-18T07:08:25.068Z,3.67
2019-03-18T07:10:55.583Z,3.50
2019-03-18T07:13:26.025Z,6.20
2019-03-18T07:15:56.520Z,6.00
2019-03-18T07:18:27.003Z,4.07
2019-03-18T07:20:57.467Z,7.00
2019-03-18T07:23:28.031Z,10.37
2019-03-18T07:25:58.547Z,9.93
2019-03-18T07:28:29.039Z,8.60
2019-03-18T07:31:00.427Z,11.03
2019-03-18T07:33:31.187Z,12.10
2019-03-18T07:36:01.667Z,8.47
2019-03-18T07:38:32.175Z,9.73
2019-03-18T07:41:04.337Z,12.80
2019-03-18T07:43:35.136Z,13.43
2019-03-18T07:46:05.606Z,8.13
2019-03-18T07:48:36.074Z,16.60
2019-03-18T07:51:06.578Z,14.73
2019-03-18T07:53:37.058Z,11.90
2019-03-18T07:56:07.858Z,12.43
2019-03-18T07:58:38.331Z,13.83
2019-03-18T08:01:08.831Z,12.40
2019-03-18T08:03:39.326Z,12.37
2019-03-18T08:06:09.819Z,18.10
2019-03-18T08:08:40.248Z,10.80
2019-03-18T08:11:10.838Z,8.07
2019-03-18T08:13:41.308Z,10.87
2019-03-18T08:16:13.583Z,12.30
2019-03-18T08:18:44.091Z,10.67
2019-03-18T08:21:15.058Z,13.33
2019-03-18T08:23:45.549Z,6.57
2019-03-18T08:26:16.035Z,12.87
2019-03-18T08:28:46.522Z,8.00
2019-03-18T08:31:17.029Z,16.30
2019-03-18T08:33:47.538Z,10.00
2019-03-18T08:36:18.118Z,11.67
2019-03-18T08:38:48.592Z,14.43
2019-03-18T08:41:19.091Z,11.80
2019-03-18T08:43:49.574Z,11.10
2019-03-18T08:46:20.098Z,9.97
2019-03-18T08:48:55.854Z,19.57
2019-03-18T08:51:22.670Z,11.80
2019-03-18T08:53:53.081Z,9.50
2019-03-18T08:56:23.594Z,9.70
2019-03-18T08:58:56.501Z,9.53
2019-03-18T09:01:26.983Z,9.60
2019-03-18T09:03:57.517Z,10.63
2019-03-18T09:06:30.308Z,11.37
2019-03-18T09:09:00.135Z,11.33
2019-03-18T09:11:30.631Z,7.80
2019-03-18T09:14:01.110Z,8.07
2019-03-18T09:16:31.621Z,10.77
2019-03-18T09:19:08.452Z,12.07
2019-03-18T09:21:34.115Z,13.77
2019-03-18T09:24:08.676Z,9.77
2019-03-18T09:26:39.282Z,10.90
2019-03-18T09:29:09.743Z,9.60
2019-03-18T09:31:40.228Z,10.30
2019-03-18T09:34:11.148Z,10.73
2019-03-18T09:36:42.086Z,12.33
2019-03-18T09:39:12.627Z,11.40
2019-03-18T09:41:43.235Z,11.43
2019-03-18T09:44:14.224Z,10.27
2019-03-18T09:46:44.715Z,11.47
2019-03-18T09:49:21.665Z,8.80
2019-03-18T09:51:47.283Z,9.47
2019-03-18T09:54:17.770Z,10.73
2019-03-18T09:56:48.266Z,8.87
2019-03-18T09:59:18.830Z,13.47
2019-03-18T10:01:49.298Z,11.60
2019-03-18T10:04:19.838Z,6.40
2019-03-18T10:06:50.341Z,8.50
2019-03-18T10:09:20.828Z,9.17
2019-03-18T10:11:51.314Z,13.03
2019-03-18T10:14:21.787Z,11.47
2019-03-18T10:16:52.280Z,10.03
2019-03-18T10:19:33.017Z,9.47
2019-03-18T10:21:54.869Z,8.53
2019-03-18T10:24:25.812Z,7.00
2019-03-18T10:26:56.335Z,9.17
2019-03-18T10:29:26.892Z,6.47
2019-03-18T10:31:59.190Z,4.87
2019-03-18T10:34:29.793Z,7.57
2019-03-18T10:37:00.386Z,4.50
2019-03-18T10:39:30.892Z,6.40
2019-03-18T10:42:01.691Z,6.07
2019-03-18T10:44:32.175Z,7.43
2019-03-18T10:47:02.650Z,5.37
2019-03-18T10:49:45.226Z,5.07
2019-03-18T10:52:05.576Z,3.53
2019-03-18T10:54:36.022Z,3.05
2019-03-18T10:57:06.598Z,2.60
2019-03-18T10:59:37.191Z,3.63
2019-03-18T11:02:07.658Z,1.63
2019-03-18T11:04:38.146Z,2.03
2019-03-18T11:07:08.995Z,2.30
2019-03-18T11:09:39.466Z,4.78
2019-03-18T11:12:09.944Z,3.00
2019-03-18T11:14:40.670Z,3.70
2019-03-18T11:17:11.155Z,1.50
2019-03-18T11:19:41.551Z,4.10
2019-03-18T11:22:12.050Z,5.40
2019-03-18T11:24:42.565Z,4.90
2019-03-18T11:27:12.980Z,4.07
2019-03-18T11:29:43.483Z,5.03
2019-03-18T11:32:14.658Z,3.17
2019-03-18T11:34:45.151Z,2.90
2019-03-18T11:37:16.056Z,2.13
2019-03-18T11:39:47.481Z,1.67
2019-03-18T11:42:18.011Z,1.80
2019-03-18T11:44:48.782Z,2.10
2019-03-18T11:47:19.279Z,3.57
2019-03-18T11:49:49.750Z,3.00
2019-03-18T11:52:20.223Z,2.13
2019-03-18T11:54:51.248Z,1.87
2019-03-18T11:57:21.755Z,2.73
2019-03-18T11:59:53.167Z,2.10
2019-03-18T12:02:27.902Z,1.97
2019-03-18T12:04:57.607Z,4.37
2019-03-18T12:07:27.855Z,2.13
2019-03-18T12:09:58.354Z,1.70
2019-03-18T12:12:28.819Z,1.93
2019-03-18T12:14:59.272Z,0.97
2019-03-18T12:17:29.680Z,1.27
2019-03-18T12:20:00.489Z,2.63
2019-03-18T12:22:30.923Z,1.13
2019-03-18T12:25:01.408Z,2.07
2019-03-18T12:27:31.919Z,2.10
2019-03-18T12:30:02.391Z,2.50
2019-03-18T12:32:32.807Z,1.27
2019-03-18T12:35:03.293Z,2.27
2019-03-18T12:37:34.136Z,0.40
2019-03-18T12:40:05.111Z,1.40
2019-03-18T12:42:35.594Z,1.53
2019-03-18T12:45:08.854Z,1.33
2019-03-18T12:47:40.311Z,3.13
2019-03-18T12:50:14.178Z,1.87
2019-03-18T12:52:44.643Z,0.30
2019-03-18T12:55:15.223Z,0.40
2019-03-18T12:57:45.687Z,1.63
2019-03-18T13:00:20.811Z,0.40
2019-03-18T13:02:51.289Z,0.63
2019-03-18T13:05:21.878Z,0.97
2019-03-18T13:07:52.391Z,0.63
2019-03-18T13:10:23.172Z,1.40
2019-03-18T13:12:53.678Z,0.40
2019-03-18T13:15:24.193Z,0.73
2019-03-18T13:17:54.982Z,0.77
2019-03-18T13:20:26.384Z,0.97
2019-03-18T13:22:56.879Z,1.70
2019-03-18T13:25:27.367Z,0.73
2019-03-18T13:27:57.975Z,2.33
2019-03-18T13:30:28.432Z,0.40
2019-03-18T13:33:01.699Z,0.97
2019-03-18T13:35:32.178Z,0.83
2019-03-18T13:38:02.682Z,0.97
2019-03-18T13:40:33.315Z,0.95
2019-03-18T13:43:03.804Z,1.50
2019-03-18T13:45:36.203Z,1.80
2019-03-18T13:48:09.631Z,0.63
2019-03-18T13:50:44.626Z,0.80
2019-03-18T13:53:15.088Z,1.30
2019-03-18T13:55:45.875Z,0.53
2019-03-18T13:58:16.484Z,0.70
2019-03-18T14:00:46.962Z,1.47
2019-03-18T14:03:20.827Z,1.10
2019-03-18T14:05:51.350Z,0.83
2019-03-18T14:08:21.865Z,0.50
2019-03-18T14:10:52.955Z,1.97
2019-03-18T14:13:23.558Z,0.53
2019-03-18T14:15:54.036Z,0.50
2019-03-18T14:18:24.524Z,0.90
2019-03-18T14:20:54.993Z,0.50
2019-03-18T14:23:25.489Z,1.10
2019-03-18T14:25:56.254Z,1.03
2019-03-18T14:28:26.791Z,1.10
2019-03-18T14:30:57.295Z,0.30
2019-03-18T14:33:27.775Z,0.30
2019-03-18T14:35:58.255Z,0.40
2019-03-18T14:38:29.241Z,0.30
2019-03-18T14:40:59.651Z,0.20
2019-03-18T14:43:30.136Z,0.20
2019-03-18T14:46:00.628Z,0.30
2019-03-18T14:48:31.096Z,0.20
2019-03-18T14:51:01.639Z,0.30
2019-03-18T14:53:32.119Z,0.27
2019-03-18T14:56:02.599Z,0.20
2019-03-18T14:58:33.416Z,0.13
2019-03-18T15:01:05.068Z,0.20
2019-03-18T15:03:35.559Z,0.20
2019-03-18T15:06:06.058Z,0.47
2019-03-18T15:08:36.547Z,0.30
2019-03-18T15:11:07.007Z,0.30
2019-03-18T15:13:37.498Z,0.33
2019-03-18T15:16:08.076Z,0.20
2019-03-18T15:18:38.543Z,0.50
2019-03-18T15:21:09.010Z,0.27
2019-03-18T15:23:39.915Z,0.33
2019-03-18T15:26:10.420Z,0.10
2019-03-18T15:28:41.622Z,0.33
2019-03-18T15:31:12.281Z,0.83
2019-03-18T15:33:43.012Z,0.40
2019-03-18T15:36:13.338Z,0.20
2019-03-18T15:38:43.827Z,0.37
2019-03-18T15:41:14.352Z,0.20
2019-03-18T15:43:44.836Z,0.40
2019-03-18T15:46:15.314Z,0.40
2019-03-18T15:48:45.911Z,0.50
2019-03-18T15:51:16.395Z,0.30
2019-03-18T15:53:46.856Z,0.53
2019-03-18T15:56:17.930Z,0.30
2019-03-18T15:58:48.743Z,0.30
2019-03-18T16:01:19.371Z,0.20
2019-03-18T16:03:49.849Z,0.30
2019-03-18T16:06:24.097Z,0.20
2019-03-18T16:08:54.879Z,0.30
2019-03-18T16:11:25.379Z,0.20
2019-03-18T16:13:55.759Z,0.40
2019-03-18T16:16:27.151Z,0.75
2019-03-18T16:18:58.244Z,0.30
2019-03-18T16:21:28.734Z,0.30
2019-03-18T16:24:00.017Z,0.30
2019-03-18T16:26:30.507Z,0.50
2019-03-18T16:29:01.011Z,0.33
2019-03-18T16:31:31.475Z,0.20
2019-03-18T16:34:01.904Z,0.30
2019-03-18T16:36:32.370Z,0.40
2019-03-18T16:39:03.153Z,0.53
2019-03-18T16:41:34.093Z,0.37
2019-03-18T16:44:04.583Z,0.37
2019-03-18T16:46:38.032Z,0.20
2019-03-18T16:49:08.914Z,0.40
2019-03-18T16:51:43.299Z,0.40
2019-03-18T16:54:13.791Z,0.30
2019-03-18T16:56:44.783Z,0.17
2019-03-18T16:59:15.247Z,0.20
2019-03-18T17:01:46.103Z,0.20
2019-03-18T17:04:18.111Z,0.20
2019-03-18T17:06:48.652Z,0.30
2019-03-18T17:09:19.155Z,0.20
2019-03-18T17:11:49.657Z,0.33
2019-03-18T17:14:20.574Z,0.40
2019-03-18T17:16:51.186Z,0.20
2019-03-18T17:19:21.824Z,0.30
2019-03-18T17:21:52.355Z,0.30
2019-03-18T17:24:23.195Z,0.30
2019-03-18T17:26:54.046Z,0.83
2019-03-18T17:29:24.547Z,0.40
2019-03-18T17:31:55.038Z,0.30
2019-03-18T17:34:25.494Z,0.40
2019-03-18T17:36:56.115Z,0.40
2019-03-18T17:39:27.667Z,0.53
2019-03-18T17:41:58.160Z,2.37
2019-03-18T17:44:29.020Z,0.80
2019-03-18T17:46:59.506Z,0.40
2019-03-18T17:49:30.016Z,0.30
2019-03-18T17:52:00.515Z,0.40
2019-03-18T17:54:31.435Z,0.30
2019-03-18T17:57:07.056Z,0.47
2019-03-18T17:59:34.468Z,0.40
2019-03-18T18:02:04.951Z,1.30
2019-03-18T18:04:35.423Z,0.70
2019-03-18T18:07:05.909Z,0.63
2019-03-18T18:09:36.376Z,0.60
2019-03-18T18:12:06.976Z,0.73
2019-03-18T18:14:38.019Z,0.40
2019-03-18T18:17:08.845Z,0.40
2019-03-18T18:19:39.366Z,0.50
2019-03-18T18:22:09.859Z,0.40
2019-03-18T18:24:40.737Z,0.40
2019-03-18T18:27:11.204Z,0.40
2019-03-18T18:29:41.713Z,0.50
2019-03-18T18:32:12.190Z,0.40
2019-03-18T18:34:43.055Z,0.73
2019-03-18T18:37:13.639Z,0.50
2019-03-18T18:39:44.138Z,0.40
2019-03-18T18:42:14.606Z,0.53
2019-03-18T18:44:45.155Z,0.60
2019-03-18T18:47:18.507Z,0.60
2019-03-18T18:49:49.071Z,0.50
2019-03-18T18:52:19.567Z,0.50
2019-03-18T18:54:50.051Z,0.57
2019-03-18T18:57:21.144Z,0.80
2019-03-18T18:59:52.247Z,0.77
2019-03-18T19:02:22.730Z,0.70
2019-03-18T19:04:54.918Z,0.50
2019-03-18T19:07:25.406Z,0.40
2019-03-18T19:09:56.623Z,0.60
2019-03-18T19:12:28.428Z,0.40
2019-03-18T19:14:58.965Z,0.50
2019-03-18T19:17:29.426Z,0.77
2019-03-18T19:19:59.966Z,1.20
2019-03-18T19:22:32.034Z,2.60
2019-03-18T19:25:03.045Z,0.50
2019-03-18T19:27:34.578Z,2.13
2019-03-18T19:30:07.047Z,1.00
2019-03-18T19:32:37.554Z,0.73
2019-03-18T19:35:08.028Z,2.60
2019-03-18T19:37:38.643Z,13.63
2019-03-18T19:40:11.939Z,4.30
2019-03-18T19:42:42.899Z,1.10
2019-03-18T19:45:13.676Z,1.60
2019-03-18T19:47:44.186Z,1.22
2019-03-18T19:50:16.511Z,1.33
2019-03-18T19:52:46.978Z,0.50
2019-03-18T19:55:18.879Z,0.83
2019-03-18T19:57:49.346Z,1.13
2019-03-18T20:00:20.660Z,0.83
2019-03-18T20:02:51.172Z,0.97
2019-03-18T20:05:21.654Z,0.80
2019-03-18T20:07:52.195Z,0.77
2019-03-18T20:10:22.693Z,0.70
2019-03-18T20:12:53.227Z,0.77
2019-03-18T20:15:23.734Z,0.60
2019-03-18T20:17:54.282Z,0.63
2019-03-18T20:20:24.776Z,0.70
2019-03-18T20:22:55.374Z,0.60
2019-03-18T20:25:25.886Z,0.33
2019-03-18T20:27:56.426Z,1.62
2019-03-18T20:30:26.913Z,5.10
2019-03-18T20:32:57.363Z,0.77
2019-03-18T20:35:28.542Z,0.90
2019-03-18T20:37:59.035Z,0.80
2019-03-18T20:40:29.508Z,0.40
2019-03-18T20:43:00.028Z,0.47
2019-03-18T20:45:30.514Z,0.50
2019-03-18T20:48:00.978Z,0.70
2019-03-18T20:50:31.499Z,0.60
2019-03-18T20:53:02.694Z,0.47
2019-03-18T20:55:33.772Z,0.50
2019-03-18T20:58:04.294Z,0.57
2019-03-18T21:00:34.754Z,0.50
2019-03-18T21:03:05.187Z,0.53
2019-03-18T21:05:35.665Z,0.40
2019-03-18T21:08:06.151Z,0.43
2019-03-18T21:10:36.606Z,0.40
2019-03-18T21:13:07.029Z,0.50
2019-03-18T21:15:37.411Z,0.60
2019-03-18T21:18:07.932Z,1.27
2019-03-18T21:20:38.512Z,1.27
2019-03-18T21:23:08.983Z,1.50
2019-03-18T21:25:39.463Z,3.73
2019-03-18T21:28:09.931Z,4.50
2019-03-18T21:30:40.351Z,3.50
2019-03-18T21:33:10.865Z,0.70
2019-03-18T21:35:41.443Z,0.97
2019-03-18T21:38:11.907Z,1.20
2019-03-18T21:40:42.412Z,0.60
2019-03-18T21:43:12.974Z,0.70
2019-03-18T21:45:43.468Z,1.57
2019-03-18T21:48:13.961Z,1.10
2019-03-18T21:50:44.575Z,0.60
2019-03-18T21:53:15.062Z,0.60
2019-03-18T21:55:45.585Z,3.27
2019-03-18T21:58:16.044Z,6.30
2019-03-18T22:00:46.531Z,1.00
2019-03-18T22:03:17.019Z,1.20
2019-03-18T22:05:47.487Z,0.67
2019-03-18T22:08:17.963Z,0.63
2019-03-18T22:10:48.695Z,0.70
2019-03-18T22:13:19.088Z,0.67
2019-03-18T22:15:49.559Z,0.90
2019-03-18T22:18:20.018Z,1.33
2019-03-18T22:21:09.567Z,0.60
2019-03-18T22:24:11.305Z,0.80
2019-03-18T22:26:54.003Z,0.80
2019-03-18T22:29:39.201Z,0.90
2019-03-18T22:32:21.379Z,0.80
2019-03-18T22:38:32.474Z,1.20
2019-03-18T22:41:20.253Z,0.63
2019-03-18T22:44:02.099Z,0.60
2019-03-18T22:46:44.340Z,0.77
2019-03-18T22:49:26.706Z,1.57
2019-03-18T22:54:56.091Z,0.63
2019-03-18T22:57:36.054Z,0.70
2019-03-18T23:00:36.773Z,0.70
2019-03-18T23:03:19.451Z,0.80
2019-03-18T23:06:01.163Z,1.10
2019-03-18T23:08:51.171Z,1.20
2019-03-18T23:12:02.539Z,0.90
2019-03-18T23:15:03.911Z,0.50
2019-03-18T23:17:45.975Z,0.70
2019-03-18T23:20:31.071Z,0.60
2019-03-18T23:26:23.731Z,2.23
2019-03-18T23:29:06.170Z,0.90
2019-03-18T23:31:48.382Z,1.10
2019-03-18T23:34:30.754Z,2.40
2019-03-18T23:37:12.861Z,1.17
2019-03-18T23:43:24.716Z,1.80
2019-03-18T23:46:07.380Z,1.37
2019-03-18T23:48:49.303Z,1.30
2019-03-18T23:51:30.990Z,1.47
2019-03-18T23:54:32.192Z,1.60
2019-03-18T23:57:13.991Z,1.67
2019-03-18T23:59:56.527Z,0.97
